sensor_id;sensor_type;location;lat;lon;timestamp;noise_LAeq;noise_LA_min;noise_LA_max;noise_LA01;noise_LA95
49215;Laerm;45943;53.148;8.204;2023-04-25T00:00:00;42.63;38.30;58.96;;
49215;Laerm;45943;53.148;8.204;2023-04-25T00:02:26;42.11;39.27;45.18;;
49215;Laerm;45943;53.148;8.204;2023-04-25T00:04:52;40.92;37.29;43.89;;
49215;Laerm;45943;53.148;8.204;2023-04-25T00:07:18;40.32;36.26;46.67;;
49215;Laerm;45943;53.148;8.204;2023-04-25T00:09:44;40.35;37.29;44.79;;
49215;Laerm;45943;53.148;8.204;2023-04-25T00:12:10;40.90;36.26;44.71;;
49215;Laerm;45943;53.148;8.204;2023-04-25T00:14:36;41.37;37.92;54.23;;
49215;Laerm;45943;53.148;8.204;2023-04-25T00:17:02;41.78;37.92;45.90;;
49215;Laerm;45943;53.148;8.204;2023-04-25T00:19:28;41.17;36.54;47.70;;
49215;Laerm;45943;53.148;8.204;2023-04-25T00:21:55;41.10;37.05;45.54;;
49215;Laerm;45943;53.148;8.204;2023-04-25T00:24:21;40.36;35.64;43.84;;
49215;Laerm;45943;53.148;8.204;2023-04-25T00:26:47;40.76;37.29;43.97;;
49215;Laerm;45943;53.148;8.204;2023-04-25T00:29:13;40.83;36.54;46.26;;
49215;Laerm;45943;53.148;8.204;2023-04-25T00:31:39;40.69;36.80;44.95;;
49215;Laerm;45943;53.148;8.204;2023-04-25T00:34:06;41.50;38.30;45.22;;
49215;Laerm;45943;53.148;8.204;2023-04-25T00:36:32;41.57;37.72;44.83;;
49215;Laerm;45943;53.148;8.204;2023-04-25T00:38:58;41.09;37.51;50.73;;
49215;Laerm;45943;53.148;8.204;2023-04-25T00:41:27;41.05;37.51;44.71;;
49215;Laerm;45943;53.148;8.204;2023-04-25T00:43:56;40.74;37.51;44.87;;
49215;Laerm;45943;53.148;8.204;2023-04-25T00:46:22;40.96;37.72;43.31;;
49215;Laerm;45943;53.148;8.204;2023-04-25T00:48:48;45.20;36.46;61.50;;
49215;Laerm;45943;53.148;8.204;2023-04-25T00:51:16;41.13;37.51;44.50;;
49215;Laerm;45943;53.148;8.204;2023-04-25T00:53:45;40.88;37.29;44.50;;
49215;Laerm;45943;53.148;8.204;2023-04-25T00:56:11;41.00;36.54;45.74;;
49215;Laerm;45943;53.148;8.204;2023-04-25T00:58:37;41.57;37.51;45.47;;
49215;Laerm;45943;53.148;8.204;2023-04-25T01:01:04;40.60;36.26;47.01;;
49215;Laerm;45943;53.148;8.204;2023-04-25T01:03:32;40.89;36.26;44.23;;
49215;Laerm;45943;53.148;8.204;2023-04-25T01:05:58;40.82;37.37;43.58;;
49215;Laerm;45943;53.148;8.204;2023-04-25T01:08:25;41.48;37.72;45.18;;
49215;Laerm;45943;53.148;8.204;2023-04-25T01:10:51;41.31;37.29;45.03;;
49215;Laerm;45943;53.148;8.204;2023-04-25T01:13:17;41.26;37.72;45.29;;
49215;Laerm;45943;53.148;8.204;2023-04-25T01:15:43;41.60;38.65;45.64;;
49215;Laerm;45943;53.148;8.204;2023-04-25T01:18:09;41.26;37.72;44.18;;
49215;Laerm;45943;53.148;8.204;2023-04-25T01:20:37;45.34;38.48;61.71;;
49215;Laerm;45943;53.148;8.204;2023-04-25T01:23:03;41.75;38.81;45.18;;
49215;Laerm;45943;53.148;8.204;2023-04-25T01:25:30;41.71;38.12;44.75;;
49215;Laerm;45943;53.148;8.204;2023-04-25T01:27:58;42.33;39.27;45.36;;
49215;Laerm;45943;53.148;8.204;2023-04-25T01:30:26;42.05;38.97;45.40;;
49215;Laerm;45943;53.148;8.204;2023-04-25T01:32:55;41.31;38.30;47.82;;
49215;Laerm;45943;53.148;8.204;2023-04-25T01:35:22;41.89;38.48;51.58;;
49215;Laerm;45943;53.148;8.204;2023-04-25T01:37:50;41.89;39.12;44.75;;
49215;Laerm;45943;53.148;8.204;2023-04-25T01:40:17;44.47;40.41;51.75;;
49215;Laerm;45943;53.148;8.204;2023-04-25T01:42:44;42.21;37.92;46.51;;
49215;Laerm;45943;53.148;8.204;2023-04-25T01:45:11;42.02;38.97;45.87;;
49215;Laerm;45943;53.148;8.204;2023-04-25T01:47:38;42.14;39.12;45.03;;
49215;Laerm;45943;53.148;8.204;2023-04-25T01:50:07;42.48;39.41;45.40;;
49215;Laerm;45943;53.148;8.204;2023-04-25T01:52:33;49.93;40.52;69.80;;
49215;Laerm;45943;53.148;8.204;2023-04-25T01:55:01;47.19;39.27;66.32;;
49215;Laerm;45943;53.148;8.204;2023-04-25T01:57:27;42.72;39.68;44.87;;
49215;Laerm;45943;53.148;8.204;2023-04-25T01:59:59;46.52;38.81;64.40;;
49215;Laerm;45943;53.148;8.204;2023-04-25T02:02:25;41.97;38.97;44.83;;
49215;Laerm;45943;53.148;8.204;2023-04-25T02:04:52;42.17;39.27;44.54;;
49215;Laerm;45943;53.148;8.204;2023-04-25T02:07:17;42.26;39.55;45.03;;
49215;Laerm;45943;53.148;8.204;2023-04-25T02:09:44;51.48;39.68;72.46;;
49215;Laerm;45943;53.148;8.204;2023-04-25T02:12:10;42.52;39.94;45.33;;
49215;Laerm;45943;53.148;8.204;2023-04-25T02:14:36;42.41;39.41;46.23;;
49215;Laerm;45943;53.148;8.204;2023-04-25T02:17:03;42.31;39.55;45.80;;
49215;Laerm;45943;53.148;8.204;2023-04-25T02:19:29;57.79;40.83;71.25;;
49215;Laerm;45943;53.148;8.204;2023-04-25T02:21:55;53.04;41.31;73.00;;
49215;Laerm;45943;53.148;8.204;2023-04-25T02:24:22;47.87;41.31;65.33;;
49215;Laerm;45943;53.148;8.204;2023-04-25T02:26:48;42.60;40.18;49.15;;
49215;Laerm;45943;53.148;8.204;2023-04-25T02:29:15;42.86;40.41;49.09;;
49215;Laerm;45943;53.148;8.204;2023-04-25T02:31:42;42.92;40.52;49.50;;
49215;Laerm;45943;53.148;8.204;2023-04-25T02:34:08;42.63;39.71;47.10;;
49215;Laerm;45943;53.148;8.204;2023-04-25T02:36:34;42.93;40.18;47.74;;
49215;Laerm;45943;53.148;8.204;2023-04-25T02:39:01;42.61;40.06;50.91;;
49215;Laerm;45943;53.148;8.204;2023-04-25T02:41:28;46.25;40.83;62.93;;
49215;Laerm;45943;53.148;8.204;2023-04-25T02:43:54;48.72;40.83;66.09;;
49215;Laerm;45943;53.148;8.204;2023-04-25T02:46:20;44.69;41.13;56.27;;
49215;Laerm;45943;53.148;8.204;2023-04-25T02:48:46;43.95;39.27;54.96;;
49215;Laerm;45943;53.148;8.204;2023-04-25T02:51:12;41.76;39.12;46.59;;
49215;Laerm;45943;53.148;8.204;2023-04-25T02:53:39;43.07;40.30;45.96;;
49215;Laerm;45943;53.148;8.204;2023-04-25T02:56:05;53.75;41.49;74.26;;
49215;Laerm;45943;53.148;8.204;2023-04-25T02:58:31;45.67;41.66;60.23;;
49215;Laerm;45943;53.148;8.204;2023-04-25T03:00:57;53.99;41.22;70.14;;
49215;Laerm;45943;53.148;8.204;2023-04-25T03:03:23;61.15;42.56;79.35;;
49215;Laerm;45943;53.148;8.204;2023-04-25T03:05:50;44.24;42.06;50.04;;
49215;Laerm;45943;53.148;8.204;2023-04-25T03:08:17;61.66;42.21;82.94;;
49215;Laerm;45943;53.148;8.204;2023-04-25T03:10:44;56.90;41.66;82.50;;
49215;Laerm;45943;53.148;8.204;2023-04-25T03:13:10;56.99;41.03;81.57;;
49215;Laerm;45943;53.148;8.204;2023-04-25T03:15:36;54.68;42.13;79.51;;
49215;Laerm;45943;53.148;8.204;2023-04-25T03:18:02;59.79;42.56;85.20;;
49215;Laerm;45943;53.148;8.204;2023-04-25T03:20:28;49.32;42.13;62.87;;
49215;Laerm;45943;53.148;8.204;2023-04-25T03:22:54;50.16;43.36;64.01;;
49215;Laerm;45943;53.148;8.204;2023-04-25T03:25:20;49.72;42.56;61.70;;
49215;Laerm;45943;53.148;8.204;2023-04-25T03:27:46;51.10;43.19;65.57;;
49215;Laerm;45943;53.148;8.204;2023-04-25T03:30:12;54.73;43.36;67.80;;
49215;Laerm;45943;53.148;8.204;2023-04-25T03:32:38;55.26;43.74;68.87;;
49215;Laerm;45943;53.148;8.204;2023-04-25T03:35:05;51.63;42.95;67.13;;
49215;Laerm;45943;53.148;8.204;2023-04-25T03:37:31;57.69;43.07;73.37;;
49215;Laerm;45943;53.148;8.204;2023-04-25T03:39:57;60.75;43.01;75.50;;
49215;Laerm;45943;53.148;8.204;2023-04-25T03:42:23;55.44;42.96;83.49;;
49215;Laerm;45943;53.148;8.204;2023-04-25T03:44:50;51.81;43.13;68.19;;
49215;Laerm;45943;53.148;8.204;2023-04-25T03:47:17;54.47;42.56;74.46;;
49215;Laerm;45943;53.148;8.204;2023-04-25T03:49:43;62.15;42.56;88.79;;
49215;Laerm;45943;53.148;8.204;2023-04-25T03:52:10;50.46;42.63;68.54;;
49215;Laerm;45943;53.148;8.204;2023-04-25T03:54:36;52.45;43.36;70.09;;
49215;Laerm;45943;53.148;8.204;2023-04-25T03:57:02;54.64;43.89;76.21;;
49215;Laerm;45943;53.148;8.204;2023-04-25T03:59:28;46.26;43.53;56.11;;
49215;Laerm;45943;53.148;8.204;2023-04-25T04:01:54;48.46;43.01;64.11;;
49215;Laerm;45943;53.148;8.204;2023-04-25T04:04:20;54.90;43.13;72.28;;
49215;Laerm;45943;53.148;8.204;2023-04-25T04:06:46;49.96;42.95;68.29;;
49215;Laerm;45943;53.148;8.204;2023-04-25T04:09:12;46.03;43.58;57.52;;
49215;Laerm;45943;53.148;8.204;2023-04-25T04:11:38;57.26;43.48;81.97;;
49215;Laerm;45943;53.148;8.204;2023-04-25T04:14:05;61.21;42.95;75.21;;
49215;Laerm;45943;53.148;8.204;2023-04-25T04:16:32;60.81;43.19;76.80;;
49215;Laerm;45943;53.148;8.204;2023-04-25T04:18:58;47.32;43.36;61.36;;
49215;Laerm;45943;53.148;8.204;2023-04-25T04:21:24;57.68;43.58;76.54;;
49215;Laerm;45943;53.148;8.204;2023-04-25T04:23:50;45.61;43.19;54.70;;
49215;Laerm;45943;53.148;8.204;2023-04-25T04:26:16;47.05;43.31;68.59;;
49215;Laerm;45943;53.148;8.204;2023-04-25T04:28:45;49.85;43.36;66.34;;
49215;Laerm;45943;53.148;8.204;2023-04-25T04:31:11;50.63;43.48;69.38;;
49215;Laerm;45943;53.148;8.204;2023-04-25T04:33:37;50.71;43.13;65.50;;
49215;Laerm;45943;53.148;8.204;2023-04-25T04:36:03;51.71;43.58;66.50;;
49215;Laerm;45943;53.148;8.204;2023-04-25T04:38:30;49.79;43.48;64.50;;
49215;Laerm;45943;53.148;8.204;2023-04-25T04:40:56;55.78;42.95;70.45;;
49215;Laerm;45943;53.148;8.204;2023-04-25T04:43:22;54.44;42.89;70.38;;
49215;Laerm;45943;53.148;8.204;2023-04-25T04:45:48;53.80;43.31;68.48;;
49215;Laerm;45943;53.148;8.204;2023-04-25T04:48:16;49.64;43.07;66.19;;
49215;Laerm;45943;53.148;8.204;2023-04-25T04:50:45;53.97;43.31;69.47;;
49215;Laerm;45943;53.148;8.204;2023-04-25T04:53:12;54.86;43.69;71.25;;
49215;Laerm;45943;53.148;8.204;2023-04-25T04:55:39;52.53;42.56;67.52;;
49215;Laerm;45943;53.148;8.204;2023-04-25T04:58:07;56.18;42.95;69.34;;
49215;Laerm;45943;53.148;8.204;2023-04-25T05:00:33;55.47;43.84;70.06;;
49215;Laerm;45943;53.148;8.204;2023-04-25T05:03:00;55.07;42.95;72.70;;
49215;Laerm;45943;53.148;8.204;2023-04-25T05:05:26;56.67;42.49;69.93;;
49215;Laerm;45943;53.148;8.204;2023-04-25T05:07:52;58.44;43.74;72.87;;
49215;Laerm;45943;53.148;8.204;2023-04-25T05:10:19;56.36;43.13;70.93;;
49215;Laerm;45943;53.148;8.204;2023-04-25T05:12:46;51.52;43.13;69.39;;
49215;Laerm;45943;53.148;8.204;2023-04-25T05:15:13;54.20;42.95;68.63;;
49215;Laerm;45943;53.148;8.204;2023-04-25T05:17:40;56.30;43.13;70.43;;
49215;Laerm;45943;53.148;8.204;2023-04-25T05:20:07;55.24;43.01;68.90;;
49215;Laerm;45943;53.148;8.204;2023-04-25T05:22:35;55.47;42.69;71.66;;
49215;Laerm;45943;53.148;8.204;2023-04-25T05:25:01;56.50;43.13;68.20;;
49215;Laerm;45943;53.148;8.204;2023-04-25T05:27:27;54.65;43.01;67.26;;
49215;Laerm;45943;53.148;8.204;2023-04-25T05:29:53;55.07;42.89;68.29;;
49215;Laerm;45943;53.148;8.204;2023-04-25T05:32:19;56.24;43.13;70.32;;
49215;Laerm;45943;53.148;8.204;2023-04-25T05:34:45;55.88;43.36;70.10;;
49215;Laerm;45943;53.148;8.204;2023-04-25T05:37:11;56.68;44.18;72.11;;
49215;Laerm;45943;53.148;8.204;2023-04-25T05:39:37;59.54;43.69;74.55;;
49215;Laerm;45943;53.148;8.204;2023-04-25T05:42:03;57.48;44.32;72.98;;
49215;Laerm;45943;53.148;8.204;2023-04-25T05:44:30;57.41;44.04;72.92;;
49215;Laerm;45943;53.148;8.204;2023-04-25T05:46:56;61.49;43.69;71.75;;
49215;Laerm;45943;53.148;8.204;2023-04-25T05:49:22;68.76;64.33;75.24;;
49215;Laerm;45943;53.148;8.204;2023-04-25T05:51:48;68.27;64.95;72.55;;
49215;Laerm;45943;53.148;8.204;2023-04-25T05:54:14;67.09;44.79;71.84;;
49215;Laerm;45943;53.148;8.204;2023-04-25T05:56:40;56.85;44.41;69.53;;
49215;Laerm;45943;53.148;8.204;2023-04-25T05:59:06;58.32;44.04;68.87;;
49215;Laerm;45943;53.148;8.204;2023-04-25T06:01:32;53.19;43.89;68.56;;
49215;Laerm;45943;53.148;8.204;2023-04-25T06:03:58;55.24;43.84;74.40;;
49215;Laerm;45943;53.148;8.204;2023-04-25T06:06:24;58.89;44.04;70.70;;
49215;Laerm;45943;53.148;8.204;2023-04-25T06:08:50;52.60;43.48;67.26;;
49215;Laerm;45943;53.148;8.204;2023-04-25T06:11:16;58.96;43.74;71.43;;
49215;Laerm;45943;53.148;8.204;2023-04-25T06:13:42;60.98;43.94;79.25;;
49215;Laerm;45943;53.148;8.204;2023-04-25T06:16:08;58.47;43.48;72.80;;
49215;Laerm;45943;53.148;8.204;2023-04-25T06:18:34;57.57;43.99;74.05;;
49215;Laerm;45943;53.148;8.204;2023-04-25T06:21:00;56.47;43.36;76.80;;
49215;Laerm;45943;53.148;8.204;2023-04-25T06:23:26;62.46;43.13;70.44;;
49215;Laerm;45943;53.148;8.204;2023-04-25T06:25:52;69.03;63.68;73.37;;
49215;Laerm;45943;53.148;8.204;2023-04-25T06:28:18;57.85;43.84;72.88;;
49215;Laerm;45943;53.148;8.204;2023-04-25T06:30:44;54.31;44.09;72.40;;
49215;Laerm;45943;53.148;8.204;2023-04-25T06:33:11;54.41;42.90;70.87;;
49215;Laerm;45943;53.148;8.204;2023-04-25T06:35:37;56.18;43.74;67.20;;
49215;Laerm;45943;53.148;8.204;2023-04-25T06:38:03;57.00;43.84;71.81;;
49215;Laerm;45943;53.148;8.204;2023-04-25T06:40:29;60.41;43.53;72.51;;
49215;Laerm;45943;53.148;8.204;2023-04-25T06:42:55;53.53;42.35;66.35;;
49215;Laerm;45943;53.148;8.204;2023-04-25T06:45:21;57.90;43.53;78.40;;
49215;Laerm;45943;53.148;8.204;2023-04-25T06:47:47;61.41;45.33;70.44;;
49215;Laerm;45943;53.148;8.204;2023-04-25T06:50:13;60.16;43.02;71.52;;
49215;Laerm;45943;53.148;8.204;2023-04-25T06:52:39;50.60;42.63;67.25;;
49215;Laerm;45943;53.148;8.204;2023-04-25T06:55:05;54.97;42.42;71.23;;
49215;Laerm;45943;53.148;8.204;2023-04-25T06:57:31;55.88;42.56;71.56;;
49215;Laerm;45943;53.148;8.204;2023-04-25T06:59:57;51.91;42.42;68.10;;
49215;Laerm;45943;53.148;8.204;2023-04-25T07:02:23;56.32;43.01;71.60;;
49215;Laerm;45943;53.148;8.204;2023-04-25T07:04:49;54.91;43.07;68.31;;
49215;Laerm;45943;53.148;8.204;2023-04-25T07:07:15;54.80;42.56;68.24;;
49215;Laerm;45943;53.148;8.204;2023-04-25T07:09:42;55.48;43.19;69.07;;
49215;Laerm;45943;53.148;8.204;2023-04-25T07:12:08;55.61;42.95;72.97;;
49215;Laerm;45943;53.148;8.204;2023-04-25T07:14:34;58.95;43.25;72.64;;
49215;Laerm;45943;53.148;8.204;2023-04-25T07:17:00;56.54;43.74;74.46;;
49215;Laerm;45943;53.148;8.204;2023-04-25T07:19:26;55.73;43.25;74.66;;
49215;Laerm;45943;53.148;8.204;2023-04-25T07:21:55;61.65;42.69;72.89;;
49215;Laerm;45943;53.148;8.204;2023-04-25T07:24:21;64.31;43.36;72.99;;
49215;Laerm;45943;53.148;8.204;2023-04-25T07:26:47;57.08;43.48;70.82;;
49215;Laerm;45943;53.148;8.204;2023-04-25T07:29:13;57.32;43.74;77.46;;
49215;Laerm;45943;53.148;8.204;2023-04-25T07:31:39;55.61;43.94;70.56;;
49215;Laerm;45943;53.148;8.204;2023-04-25T07:34:05;56.39;44.18;81.81;;
49215;Laerm;45943;53.148;8.204;2023-04-25T07:36:31;51.72;43.84;71.42;;
49215;Laerm;45943;53.148;8.204;2023-04-25T07:38:57;57.78;44.91;73.47;;
49215;Laerm;45943;53.148;8.204;2023-04-25T07:41:23;55.65;44.71;69.77;;
49215;Laerm;45943;53.148;8.204;2023-04-25T07:43:49;54.93;43.74;69.28;;
49215;Laerm;45943;53.148;8.204;2023-04-25T07:46:15;52.26;43.89;67.89;;
49215;Laerm;45943;53.148;8.204;2023-04-25T07:48:41;51.19;44.23;65.78;;
49215;Laerm;45943;53.148;8.204;2023-04-25T07:51:07;56.32;44.87;71.81;;
49215;Laerm;45943;53.148;8.204;2023-04-25T07:53:33;53.80;45.36;66.31;;
49215;Laerm;45943;53.148;8.204;2023-04-25T07:56:00;63.46;46.49;77.60;;
49215;Laerm;45943;53.148;8.204;2023-04-25T07:58:26;55.73;44.37;69.25;;
49215;Laerm;45943;53.148;8.204;2023-04-25T08:00:52;55.26;44.04;68.67;;
49215;Laerm;45943;53.148;8.204;2023-04-25T08:03:18;55.49;44.32;67.46;;
49215;Laerm;45943;53.148;8.204;2023-04-25T08:05:44;53.19;43.31;66.56;;
49215;Laerm;45943;53.148;8.204;2023-04-25T08:08:11;55.95;43.74;69.42;;
49215;Laerm;45943;53.148;8.204;2023-04-25T08:10:37;53.52;42.89;73.35;;
49215;Laerm;45943;53.148;8.204;2023-04-25T08:13:03;51.49;42.49;65.08;;
49215;Laerm;45943;53.148;8.204;2023-04-25T08:15:29;55.43;43.36;71.36;;
49215;Laerm;45943;53.148;8.204;2023-04-25T08:17:55;54.02;42.76;69.73;;
49215;Laerm;45943;53.148;8.204;2023-04-25T08:20:21;58.31;44.09;72.52;;
49215;Laerm;45943;53.148;8.204;2023-04-25T08:22:47;50.68;42.54;64.99;;
49215;Laerm;45943;53.148;8.204;2023-04-25T08:25:14;56.05;42.35;74.36;;
49215;Laerm;45943;53.148;8.204;2023-04-25T08:27:40;53.68;41.98;67.51;;
49215;Laerm;45943;53.148;8.204;2023-04-25T08:30:07;57.42;42.21;71.15;;
49215;Laerm;45943;53.148;8.204;2023-04-25T08:32:34;52.07;43.74;68.49;;
49215;Laerm;45943;53.148;8.204;2023-04-25T08:35:00;52.54;43.19;67.49;;
49215;Laerm;45943;53.148;8.204;2023-04-25T08:37:26;52.38;43.42;70.73;;
49215;Laerm;45943;53.148;8.204;2023-04-25T08:39:52;59.48;44.46;74.37;;
49215;Laerm;45943;53.148;8.204;2023-04-25T08:42:19;56.42;45.22;68.99;;
49215;Laerm;45943;53.148;8.204;2023-04-25T08:44:48;60.39;46.73;71.13;;
49215;Laerm;45943;53.148;8.204;2023-04-25T08:47:14;55.89;43.89;71.47;;
49215;Laerm;45943;53.148;8.204;2023-04-25T08:49:44;59.22;42.89;74.94;;
49215;Laerm;45943;53.148;8.204;2023-04-25T08:52:12;58.50;43.89;72.40;;
49215;Laerm;45943;53.148;8.204;2023-04-25T08:54:42;53.00;43.74;68.27;;
49215;Laerm;45943;53.148;8.204;2023-04-25T08:57:10;53.69;43.36;67.42;;
49215;Laerm;45943;53.148;8.204;2023-04-25T08:59:37;57.64;43.58;75.30;;
49215;Laerm;45943;53.148;8.204;2023-04-25T09:02:05;51.46;43.36;65.96;;
49215;Laerm;45943;53.148;8.204;2023-04-25T09:04:31;53.82;42.21;71.12;;
49215;Laerm;45943;53.148;8.204;2023-04-25T09:06:58;63.96;43.01;71.19;;
49215;Laerm;45943;53.148;8.204;2023-04-25T09:09:24;67.90;62.50;73.96;;
49215;Laerm;45943;53.148;8.204;2023-04-25T09:11:50;66.42;43.84;72.72;;
49215;Laerm;45943;53.148;8.204;2023-04-25T09:14:23;54.13;42.84;72.33;;
49215;Laerm;45943;53.148;8.204;2023-04-25T09:16:59;54.93;42.76;71.91;;
49215;Laerm;45943;53.148;8.204;2023-04-25T09:19:27;57.11;43.42;69.98;;
49215;Laerm;45943;53.148;8.204;2023-04-25T09:21:54;54.53;42.63;67.83;;
49215;Laerm;45943;53.148;8.204;2023-04-25T09:24:31;55.72;42.95;74.31;;
49215;Laerm;45943;53.148;8.204;2023-04-25T09:26:57;52.56;43.01;69.21;;
49215;Laerm;45943;53.148;8.204;2023-04-25T09:29:34;59.30;43.74;77.51;;
49215;Laerm;45943;53.148;8.204;2023-04-25T09:32:11;54.24;43.48;70.41;;
49215;Laerm;45943;53.148;8.204;2023-04-25T09:34:43;56.64;44.95;71.95;;
49215;Laerm;45943;53.148;8.204;2023-04-25T09:37:10;57.01;47.00;73.52;;
49215;Laerm;45943;53.148;8.204;2023-04-25T09:39:37;58.63;44.67;70.90;;
49215;Laerm;45943;53.148;8.204;2023-04-25T09:42:04;57.98;47.96;70.51;;
49215;Laerm;45943;53.148;8.204;2023-04-25T09:44:31;57.25;46.37;70.50;;
49215;Laerm;45943;53.148;8.204;2023-04-25T09:46:57;57.19;45.77;70.31;;
49215;Laerm;45943;53.148;8.204;2023-04-25T09:49:23;62.52;44.59;80.05;;
49215;Laerm;45943;53.148;8.204;2023-04-25T09:51:56;56.85;44.14;70.47;;
49215;Laerm;45943;53.148;8.204;2023-04-25T09:54:26;55.09;43.64;68.94;;
49215;Laerm;45943;53.148;8.204;2023-04-25T09:56:53;55.34;44.18;72.91;;
49215;Laerm;45943;53.148;8.204;2023-04-25T09:59:22;59.99;44.32;76.20;;
49215;Laerm;45943;53.148;8.204;2023-04-25T10:01:49;67.52;62.89;72.64;;
49215;Laerm;45943;53.148;8.204;2023-04-25T10:04:20;66.93;42.82;75.99;;
49215;Laerm;45943;53.148;8.204;2023-04-25T10:06:49;55.84;43.69;70.12;;
49215;Laerm;45943;53.148;8.204;2023-04-25T10:09:16;66.88;44.37;73.75;;
49215;Laerm;45943;53.148;8.204;2023-04-25T10:11:45;71.09;67.12;76.43;;
49215;Laerm;45943;53.148;8.204;2023-04-25T10:14:13;67.00;43.13;74.19;;
49215;Laerm;45943;53.148;8.204;2023-04-25T10:16:41;52.22;43.74;66.38;;
49215;Laerm;45943;53.148;8.204;2023-04-25T10:19:07;56.97;44.09;78.64;;
49215;Laerm;45943;53.148;8.204;2023-04-25T10:21:34;58.51;43.13;74.01;;
49215;Laerm;45943;53.148;8.204;2023-04-25T10:24:01;57.37;44.04;68.76;;
49215;Laerm;45943;53.148;8.204;2023-04-25T10:26:27;66.84;43.74;81.33;;
49215;Laerm;45943;53.148;8.204;2023-04-25T10:29:00;54.59;42.56;70.09;;
49215;Laerm;45943;53.148;8.204;2023-04-25T10:31:27;57.81;42.63;72.69;;
49215;Laerm;45943;53.148;8.204;2023-04-25T10:33:54;54.02;43.48;78.62;;
49215;Laerm;45943;53.148;8.204;2023-04-25T10:36:22;65.23;44.18;79.14;;
49215;Laerm;45943;53.148;8.204;2023-04-25T10:38:50;59.99;44.71;72.93;;
49215;Laerm;45943;53.148;8.204;2023-04-25T10:41:20;57.58;44.59;70.84;;
49215;Laerm;45943;53.148;8.204;2023-04-25T10:43:47;55.83;43.42;67.86;;
49215;Laerm;45943;53.148;8.204;2023-04-25T10:46:29;61.76;45.18;73.26;;
49215;Laerm;45943;53.148;8.204;2023-04-25T10:48:58;54.36;43.79;75.70;;
49215;Laerm;45943;53.148;8.204;2023-04-25T10:54:04;54.27;43.53;68.21;;
49215;Laerm;45943;53.148;8.204;2023-04-25T10:56:38;56.98;44.75;76.00;;
49215;Laerm;45943;53.148;8.204;2023-04-25T10:59:10;65.79;44.32;76.17;;
49215;Laerm;45943;53.148;8.204;2023-04-25T11:01:44;55.28;43.48;76.53;;
49215;Laerm;45943;53.148;8.204;2023-04-25T11:04:30;58.28;44.50;76.85;;
49215;Laerm;45943;53.148;8.204;2023-04-25T11:09:37;60.60;44.14;76.59;;
49215;Laerm;45943;53.148;8.204;2023-04-25T11:12:04;65.89;43.69;75.61;;
49215;Laerm;45943;53.148;8.204;2023-04-25T11:14:32;56.18;43.64;70.49;;
49215;Laerm;45943;53.148;8.204;2023-04-25T11:16:59;53.23;43.64;68.72;;
49215;Laerm;45943;53.148;8.204;2023-04-25T11:19:25;55.09;43.58;70.36;;
49215;Laerm;45943;53.148;8.204;2023-04-25T11:21:59;56.85;44.91;72.81;;
49215;Laerm;45943;53.148;8.204;2023-04-25T11:24:29;52.92;44.23;68.40;;
49215;Laerm;45943;53.148;8.204;2023-04-25T11:26:57;56.73;43.74;82.64;;
49215;Laerm;45943;53.148;8.204;2023-04-25T11:29:27;55.79;43.99;68.33;;
49215;Laerm;45943;53.148;8.204;2023-04-25T11:31:54;59.86;47.05;79.17;;
49215;Laerm;45943;53.148;8.204;2023-04-25T11:34:24;57.54;45.74;71.09;;
49215;Laerm;45943;53.148;8.204;2023-04-25T11:36:51;54.08;44.63;72.72;;
49215;Laerm;45943;53.148;8.204;2023-04-25T11:39:19;59.65;44.28;76.41;;
49215;Laerm;45943;53.148;8.204;2023-04-25T11:41:46;55.06;44.18;69.45;;
49215;Laerm;45943;53.148;8.204;2023-04-25T11:44:15;55.73;43.07;70.06;;
49215;Laerm;45943;53.148;8.204;2023-04-25T11:46:45;56.64;43.74;71.37;;
49215;Laerm;45943;53.148;8.204;2023-04-25T11:49:12;54.11;42.63;69.68;;
49215;Laerm;45943;53.148;8.204;2023-04-25T11:51:39;53.28;43.31;68.43;;
49215;Laerm;45943;53.148;8.204;2023-04-25T11:54:06;53.21;43.64;66.23;;
49215;Laerm;45943;53.148;8.204;2023-04-25T11:56:32;52.70;43.19;67.53;;
49215;Laerm;45943;53.148;8.204;2023-04-25T11:59:01;55.54;44.04;67.63;;
49215;Laerm;45943;53.148;8.204;2023-04-25T12:01:41;53.53;43.25;67.17;;
49215;Laerm;45943;53.148;8.204;2023-04-25T12:06:44;55.15;43.53;70.75;;
49215;Laerm;45943;53.148;8.204;2023-04-25T12:09:15;55.36;43.13;70.07;;
49215;Laerm;45943;53.148;8.204;2023-04-25T12:11:46;57.27;45.18;71.13;;
49215;Laerm;45943;53.148;8.204;2023-04-25T12:14:20;52.86;44.18;66.87;;
49215;Laerm;45943;53.148;8.204;2023-04-25T12:16:48;60.16;44.83;83.06;;
49215;Laerm;45943;53.148;8.204;2023-04-25T12:19:16;56.88;44.59;72.86;;
49215;Laerm;45943;53.148;8.204;2023-04-25T12:21:43;61.56;46.88;77.75;;
49215;Laerm;45943;53.148;8.204;2023-04-25T12:24:24;55.11;44.99;69.66;;
49215;Laerm;45943;53.148;8.204;2023-04-25T12:29:29;58.31;44.75;71.97;;
49215;Laerm;45943;53.148;8.204;2023-04-25T12:31:56;56.33;45.33;69.36;;
49215;Laerm;45943;53.148;8.204;2023-04-25T12:34:23;54.88;45.67;72.87;;
49215;Laerm;45943;53.148;8.204;2023-04-25T12:36:50;55.13;44.87;68.48;;
49215;Laerm;45943;53.148;8.204;2023-04-25T12:39:18;58.96;44.09;74.81;;
49215;Laerm;45943;53.148;8.204;2023-04-25T12:41:53;56.42;44.14;78.27;;
49215;Laerm;45943;53.148;8.204;2023-04-25T12:44:20;52.69;43.53;71.28;;
49215;Laerm;45943;53.148;8.204;2023-04-25T12:46:46;56.26;44.59;70.47;;
49215;Laerm;45943;53.148;8.204;2023-04-25T12:49:12;54.32;43.53;67.76;;
49215;Laerm;45943;53.148;8.204;2023-04-25T12:51:38;55.55;44.14;68.87;;
49215;Laerm;45943;53.148;8.204;2023-04-25T12:54:05;54.98;43.64;68.64;;
49215;Laerm;45943;53.148;8.204;2023-04-25T12:56:33;56.46;45.14;75.11;;
49215;Laerm;45943;53.148;8.204;2023-04-25T12:58:59;56.80;44.32;69.23;;
49215;Laerm;45943;53.148;8.204;2023-04-25T13:01:25;55.25;44.32;67.26;;
49215;Laerm;45943;53.148;8.204;2023-04-25T13:03:52;62.77;45.33;76.46;;
49215;Laerm;45943;53.148;8.204;2023-04-25T13:06:19;55.34;44.71;69.10;;
49215;Laerm;45943;53.148;8.204;2023-04-25T13:08:46;54.28;43.79;72.67;;
49215;Laerm;45943;53.148;8.204;2023-04-25T13:11:12;55.68;43.94;81.29;;
49215;Laerm;45943;53.148;8.204;2023-04-25T13:13:41;56.06;44.04;80.80;;
49215;Laerm;45943;53.148;8.204;2023-04-25T13:16:07;58.60;45.18;83.41;;
49215;Laerm;45943;53.148;8.204;2023-04-25T13:18:34;54.60;43.89;71.53;;
49215;Laerm;45943;53.148;8.204;2023-04-25T13:21:00;62.00;44.67;76.92;;
49215;Laerm;45943;53.148;8.204;2023-04-25T13:23:28;59.07;44.71;74.63;;
49215;Laerm;45943;53.148;8.204;2023-04-25T13:25:55;51.86;44.23;67.72;;
49215;Laerm;45943;53.148;8.204;2023-04-25T13:28:21;54.54;44.37;69.38;;
49215;Laerm;45943;53.148;8.204;2023-04-25T13:30:47;62.99;43.74;74.33;;
49215;Laerm;45943;53.148;8.204;2023-04-25T13:33:14;53.84;43.94;68.37;;
49215;Laerm;45943;53.148;8.204;2023-04-25T13:35:41;61.03;43.94;76.45;;
49215;Laerm;45943;53.148;8.204;2023-04-25T13:38:07;60.14;44.91;74.41;;
49215;Laerm;45943;53.148;8.204;2023-04-25T13:40:34;59.53;44.99;75.15;;
49215;Laerm;45943;53.148;8.204;2023-04-25T13:43:01;57.80;44.28;76.49;;
49215;Laerm;45943;53.148;8.204;2023-04-25T13:45:27;58.82;43.94;74.21;;
49215;Laerm;45943;53.148;8.204;2023-04-25T13:47:53;55.84;44.28;71.73;;
49215;Laerm;45943;53.148;8.204;2023-04-25T13:50:19;55.19;45.03;68.17;;
49215;Laerm;45943;53.148;8.204;2023-04-25T13:52:46;62.04;45.03;76.91;;